EW4702 Weather Reports


time (UTC)temp
F
wind
direction
speed
knots
gust
knots
rain 1hr
in
rain 24hr
in
rain mn
in
humidity
%
barometer
mb
20260906051601 71 23 0.0 0.0 0.00 0.00 0.00 98 1010.4
20260906050104 71 23 0.0 0.0 0.00 0.00 0.00 98 1010.5
20260906044554 71 23 0.0 0.0 0.00 0.00 0.00 98 1010.5
20260906043058 71 24 0.0 0.0 0.00 0.00 0.00 98 1010.3
20260906041550 71 23 0.0 0.0 0.00 0.00 0.00 97 1010.2
20260906040048 72 19 0.0 0.0 0.00 0.00 0.00 98 1010.5
20260906034607 72 5 0.0 0.0 0.00 0.00 0.00 98 1010.5
20260906033046 72 5 0.0 0.0 0.00 0.00 0.00 96 1010.7
20260906031551 72 5 0.0 0.0 0.00 0.00 0.00 96 1010.9
20260906030044 72 5 0.0 0.0 0.00 0.00 0.00 96 1010.7
20260906024543 72 5 0.0 0.0 0.00 0.00 0.00 95 1010.6
20260906023041 72 5 0.0 0.0 0.00 0.00 0.00 95 1010.4
20260906021540 73 26 0.0 0.0 0.00 0.00 0.00 94 1010.3
20260906020041 73 38 0.0 0.0 0.00 0.00 0.00 94 1010.2
20260906014541 73 10 0.0 0.0 0.00 0.00 0.00 95 1010.1
20260906013056 73 10 0.0 0.0 0.00 0.00 0.00 94 1010.0
20260906011545 74 9 0.0 0.0 0.00 0.00 0.00 94 1009.6
20260906010037 74 21 0.0 0.0 0.00 0.00 0.00 93 1009.7
20260906004538 75 21 0.0 0.0 0.00 0.00 0.00 93 1009.6
20260906003036 75 21 0.0 0.0 0.00 0.00 0.00 92 1009.3
20260906001533 76 21 0.0 0.0 0.00 0.00 0.00 91 1009.1
20260906000033 77 21 0.0 0.0 0.00 0.00 0.00 91 1009.1
20260905234532 77 42 0.0 0.0 0.00 0.00 0.00 90 1008.9
20260905233038 78 42 0.0 0.0 0.00 0.00 0.00 89 1009.0
20260905231531 79 42 0.0 0.0 0.00 0.00 0.00 87 1008.7
20260905230028 81 36 0.0 0.0 0.00 0.00 0.00 84 1008.5
20260905224528 83 19 0.0 1.7 0.00 0.00 0.00 80 1008.3
20260905223024 85 26 0.9 2.6 0.00 0.00 0.00 75 1008.4
20260905221525 85 9 0.0 1.7 0.00 0.00 0.00 76 1008.6
20260905220023 84 13 0.0 2.6 0.00 0.00 0.00 77 1008.6
20260905214526 83 322 0.0 1.7 0.00 0.00 0.00 79 1008.6
20260905213021 82 286 1.7 6.1 0.00 0.00 0.00 75 1008.7
20260905211519 82 159 0.0 3.5 0.00 0.00 0.00 79 1008.9
20260905210031 80 287 0.9 3.5 0.00 0.00 0.00 83 1009.1
20260905204517 78 137 0.0 1.7 0.00 0.00 0.00 86 1009.1
20260905203016 79 152 0.9 1.7 0.00 0.00 0.00 84 1009.4
20260905201516 79 165 0.0 1.7 0.00 0.00 0.00 82 1009.6
20260905200021 79 265 1.7 3.5 0.00 0.00 0.00 81 1009.7
20260905194514 78 281 3.5 7.8 0.00 0.00 0.00 84 1009.9
20260905193011 79 230 1.7 4.3 0.00 0.00 0.00 83 1010.0
20260905191511 79 346 1.7 6.1 0.00 0.00 0.00 84 1010.0
20260905190013 79 185 0.0 2.6 0.00 0.00 0.00 84 1009.4
20260905184513 80 273 0.0 3.5 0.00 0.00 0.00 85 1009.5
20260905183007 80 281 0.0 2.6 0.00 0.00 0.00 85 1009.7
20260905181505 82 68 0.0 1.7 0.00 0.00 0.00 81 1008.9
20260905180002 84 22 0.0 1.7 0.00 0.00 0.00 78 1010.0
20260905174606 85 26 0.0 2.6 0.00 0.00 0.00 76 1010.7
20260905173058 87 81 0.0 2.6 0.00 0.00 0.00 71 1010.6
20260905171629 88 173 1.7 4.3 0.00 0.00 0.00 65 1010.5
20260905170104 90 124 0.9 4.3 0.00 0.00 0.00 72 1010.4
20260905164554 89 202 0.9 2.6 0.00 0.00 0.00 65 1010.6
20260905163056 90 173 1.7 6.1 0.00 0.00 0.00 66 1010.7
20260905161547 88 92 0.0 2.6 0.00 0.00 0.00 73 1011.0
20260905160043 87 117 0.9 4.3 0.00 0.00 0.00 73 1011.2
20260905154554 86 181 0.9 7.0 0.00 0.00 0.00 73 1011.4
20260905153037 85 138 0.0 2.6 0.00 0.00 0.00 82 1011.1
20260905151530 83 149 0.0 1.7 0.00 0.00 0.00 85 1011.0
20260905150038 82 138 0.9 2.6 0.00 0.00 0.00 87 1011.0
20260905144523 80 145 0.0 2.6 0.00 0.00 0.00 91 1011.0
20260905143020 80 145 0.0 1.7 0.00 0.00 0.00 90 1011.1
20260905141548 78 117 0.9 2.6 0.00 0.00 0.00 93 1011.2
20260905140043 77 144 0.9 4.3 0.00 0.00 0.00 98 1011.2
20260905134637 76 128 0.0 1.7 0.00 0.00 0.00 99 1011.3
20260905133035 75 107 0.0 1.7 0.00 0.00 0.00 99 1011.3
20260905131537 74 112 0.0 3.5 0.00 0.00 0.00 100 1011.5
20260905130031 73 24 0.0 0.0 0.00 0.00 0.00 100 1011.7
20260905124526 72 24 0.0 0.0 0.00 0.00 0.00 100 1011.9
20260905123034 72 24 0.0 1.7 0.00 0.00 0.00 99 1011.6
20260905121523 72 24 0.0 0.9 0.00 0.00 0.00 100 1011.6
20260905120025 71 24 0.0 0.9 0.00 0.00 0.00 100 1011.7
20260905114520 71 24 0.0 0.9 0.00 0.00 0.00 99 1011.4
20260905113018 71 24 0.0 1.7 0.00 0.00 0.00 99 1011.3
20260905111519 71 26 0.0 0.9 0.00 0.00 0.00 99 1011.0
20260905110014 71 26 0.0 1.7 0.00 0.00 0.00 99 1010.7
20260905104605 71 10 0.0 0.9 0.00 0.00 0.00 99 1010.6
20260905103043 71 10 0.0 0.9 0.00 0.00 0.00 99 1010.5
20260905101513 71 10 0.0 1.7 0.00 0.00 0.00 99 1010.4
20260905100012 71 10 0.0 1.7 0.00 0.00 0.00 99 1010.4
20260905094510 72 10 0.0 1.7 0.00 0.00 0.00 99 1010.4
20260905093009 72 10 0.0 0.9 0.00 0.00 0.00 99 1010.3
20260905091508 72 10 0.0 1.7 0.00 0.00 0.00 99 1010.3
20260905090009 72 10 0.0 0.0 0.00 0.00 0.00 99 1010.4
20260905084502 72 10 0.0 1.7 0.00 0.00 0.00 98 1010.5
20260905083101 72 10 0.0 0.9 0.00 0.00 0.00 98 1010.7
20260905081602 72 10 0.0 0.9 0.00 0.00 0.00 98 1010.8
20260905080107 72 10 0.0 1.7 0.00 0.00 0.00 98 1011.0
20260905074601 72 10 0.0 1.7 0.00 0.00 0.00 98 1011.3
20260905073106 72 10 0.0 0.9 0.00 0.00 0.00 98 1011.3
20260905071553 72 10 0.0 1.7 0.00 0.00 0.00 97 1011.4
20260905070051 73 10 0.0 1.7 0.00 0.00 0.00 98 1011.4
20260905064521 73 10 0.0 0.0 0.00 0.00 0.00 98 1011.6
20260905063021 73 10 0.0 0.0 0.00 0.00 0.00 97 1011.7
20260905061525 73 10 0.9 1.7 0.00 0.00 0.00 97 1011.9
20260905060029 73 10 0.0 1.7 0.00 0.00 0.00 97 1012.1
20260905054523 74 10 0.0 1.7 0.00 0.00 0.00 97 1012.2
20260905053017 74 10 0.0 0.9 0.00 0.00 0.00 97 1012.4